Time;durP1;ratioP1;P1;durP2;ratioP2;P2;SDS_P1;SDS_P2;PMS_P1;PMS_P2;Temp;Humidity;BMP_temperature;BMP_pressure;BME280_temperature;BME280_humidity;BME280_pressure;Samples;Min_cycle;Max_cycle;Signal;HPM_P1;HPM_P2
2023/12/03 00:00:55;;;;;;;21.70;9.40;;;;;;;-2.21;100.00;100117.22;4995466;28;20137;-77
2023/12/03 00:03:23;;;;;;;20.13;9.90;;;;;;;-2.24;100.00;100106.81;4995428;28;20053;-76
2023/12/03 00:05:49;;;;;;;17.58;9.13;;;;;;;-2.14;100.00;100119.94;4995370;28;20030;-77
2023/12/03 00:08:15;;;;;;;17.77;9.00;;;;;;;-2.15;100.00;100109.94;4995274;28;20034;-77
2023/12/03 00:10:42;;;;;;;18.55;8.88;;;;;;;-2.15;100.00;100118.34;4997166;28;20217;-77
2023/12/03 00:13:07;;;;;;;16.70;7.88;;;;;;;-2.14;100.00;100110.75;4996414;28;20045;-76
2023/12/03 00:15:33;;;;;;;18.25;8.80;;;;;;;-2.22;100.00;100107.22;4999330;28;20026;-77
2023/12/03 00:17:59;;;;;;;16.95;8.70;;;;;;;-2.30;100.00;100116.06;5000812;28;20034;-77
2023/12/03 00:20:25;;;;;;;20.27;10.20;;;;;;;-2.22;100.00;100123.22;4998773;28;20026;-77
2023/12/03 00:22:50;;;;;;;18.50;9.23;;;;;;;-2.32;100.00;100096.91;4998332;28;20123;-78
2023/12/03 00:25:16;;;;;;;15.85;8.20;;;;;;;-2.20;100.00;100120.81;4995602;28;20035;-78
2023/12/03 00:27:43;;;;;;;19.52;9.13;;;;;;;-2.24;100.00;100134.81;4994333;28;20537;-76
2023/12/03 00:30:11;;;;;;;19.33;8.98;;;;;;;-2.26;100.00;100128.84;4996087;28;20037;-76
2023/12/03 00:32:36;;;;;;;18.27;8.25;;;;;;;-2.24;100.00;100129.22;4995930;28;20041;-77
2023/12/03 00:35:03;;;;;;;17.75;8.07;;;;;;;-2.27;100.00;100129.25;4994069;28;20039;-76
2023/12/03 00:37:30;;;;;;;19.25;8.55;;;;;;;-2.27;100.00;100126.44;4994383;28;20030;-76
2023/12/03 00:39:55;;;;;;;14.38;7.30;;;;;;;-2.25;100.00;100140.81;4994151;28;20431;-75
2023/12/03 00:42:27;;;;;;;13.75;6.80;;;;;;;-2.22;100.00;100151.19;4994953;28;20034;-76
2023/12/03 00:44:52;;;;;;;14.65;7.43;;;;;;;-2.25;100.00;100136.03;4994265;28;20073;-77
2023/12/03 00:47:21;;;;;;;18.67;7.55;;;;;;;-2.16;100.00;100139.16;4994308;28;20030;-76
2023/12/03 00:49:46;;;;;;;19.27;9.15;;;;;;;-2.12;100.00;100153.13;4992940;28;20464;-76
2023/12/03 00:52:12;;;;;;;15.02;7.70;;;;;;;-2.18;100.00;100149.97;4992284;28;20054;-76
2023/12/03 00:54:38;;;;;;;18.80;7.95;;;;;;;-2.08;100.00;100174.28;4994263;28;20030;-77
2023/12/03 00:57:06;;;;;;;13.65;6.65;;;;;;;-2.09;100.00;100169.09;4992816;28;20423;-76
2023/12/03 00:59:31;;;;;;;15.25;6.53;;;;;;;-2.07;100.00;100170.28;4992864;28;20026;-77
2023/12/03 01:01:56;;;;;;;15.43;7.88;;;;;;;-2.23;100.00;100156.00;5009086;28;20026;-77
2023/12/03 01:04:22;;;;;;;15.13;7.03;;;;;;;-2.07;100.00;100180.69;4993906;28;20022;-77
2023/12/03 01:06:47;;;;;;;15.57;6.95;;;;;;;-2.09;100.00;100171.88;4992642;28;20066;-76
2023/12/03 01:09:13;;;;;;;18.90;7.75;;;;;;;-2.01;100.00;100184.63;4993842;28;20053;-77
2023/12/03 01:11:40;;;;;;;15.75;7.97;;;;;;;-2.03;100.00;100185.03;4993667;28;20022;-77
2023/12/03 01:14:06;;;;;;;14.15;7.30;;;;;;;-2.15;100.00;100163.13;4992994;28;20018;-75
2023/12/03 01:16:32;;;;;;;14.77;7.60;;;;;;;-1.97;100.00;100188.22;4994895;28;20076;-76
2023/12/03 01:18:58;;;;;;;12.60;7.50;;;;;;;-1.97;100.00;100190.22;4994960;28;20030;-76
2023/12/03 01:21:25;;;;;;;16.42;8.43;;;;;;;-1.99;100.00;100199.00;4994760;28;20022;-77
2023/12/03 01:23:51;;;;;;;14.45;7.70;;;;;;;-2.00;100.00;100186.25;4994787;28;20026;-76
2023/12/03 01:26:18;;;;;;;16.63;8.07;;;;;;;-2.03;100.00;100185.03;5009511;28;20467;-76
2023/12/03 01:28:44;;;;;;;21.08;9.40;;;;;;;-1.92;100.00;100193.38;4994858;28;20022;-76
2023/12/03 01:31:10;;;;;;;15.73;8.23;;;;;;;-2.00;100.00;100194.63;4993519;28;20030;-76
2023/12/03 01:33:35;;;;;;;13.70;8.18;;;;;;;-1.98;100.00;100211.81;4993315;28;20014;-78
2023/12/03 01:36:01;;;;;;;14.55;7.97;;;;;;;-1.98;100.00;100214.59;4993704;28;20038;-77
2023/12/03 01:38:27;;;;;;;14.60;8.40;;;;;;;-1.93;100.00;100208.56;4993355;28;20029;-78
2023/12/03 01:40:54;;;;;;;18.95;8.73;;;;;;;-2.06;100.00;100185.88;4993541;28;20026;-76
2023/12/03 01:43:20;;;;;;;18.02;9.00;;;;;;;-1.93;100.00;100190.97;5009574;28;20014;-77
2023/12/03 01:45:45;;;;;;;16.35;8.55;;;;;;;-1.91;100.00;100189.38;4993142;28;20037;-76
2023/12/03 01:48:14;;;;;;;17.70;9.27;;;;;;;-1.86;100.00;100204.94;4992984;28;20344;-77
2023/12/03 01:50:41;;;;;;;14.93;8.35;;;;;;;-2.00;100.00;100192.59;4994044;28;20128;-78
2023/12/03 01:53:07;;;;;;;16.77;8.43;;;;;;;-2.00;100.00;100208.63;4993186;28;20026;-76
2023/12/03 01:55:42;;;;;;;17.00;8.90;;;;;;;-1.93;100.00;100200.16;4992750;28;20097;-76
2023/12/03 01:58:07;;;;;;;15.50;8.95;;;;;;;-1.90;100.00;100206.97;4994312;28;20097;-76
2023/12/03 02:00:33;;;;;;;20.38;10.05;;;;;;;-1.94;100.00;100218.16;4976545;28;20061;-77
2023/12/03 02:02:59;;;;;;;20.00;10.48;;;;;;;-1.93;100.00;100208.56;4992997;28;20437;-76
2023/12/03 02:05:25;;;;;;;19.58;10.05;;;;;;;-1.90;100.00;100207.75;4994010;28;20376;-76
2023/12/03 02:07:51;;;;;;;19.17;10.10;;;;;;;-1.87;100.00;100220.13;4992756;28;20447;-76
2023/12/03 02:10:17;;;;;;;21.13;11.10;;;;;;;-1.91;100.00;100222.16;4994124;28;20031;-76
2023/12/03 02:12:43;;;;;;;18.17;10.20;;;;;;;-1.90;100.00;100227.34;4993983;28;20029;-76
2023/12/03 02:15:10;;;;;;;22.70;9.90;;;;;;;-1.90;100.00;100227.34;4992865;28;20037;-77
2023/12/03 02:17:36;;;;;;;20.42;10.60;;;;;;;-2.05;100.00;100204.25;4994429;28;20038;-77
2023/12/03 02:20:03;;;;;;;26.48;10.63;;;;;;;-1.88;100.00;100210.94;4994126;28;20493;-76
2023/12/03 02:22:29;;;;;;;19.50;9.20;;;;;;;-1.87;100.00;100220.94;4992779;28;20105;-77
2023/12/03 02:24:54;;;;;;;19.25;9.13;;;;;;;-1.81;100.00;100235.31;4993893;28;20141;-76
2023/12/03 02:27:20;;;;;;;19.15;9.52;;;;;;;-1.73;100.00;100234.03;4993769;28;20033;-76
2023/12/03 02:29:48;;;;;;;20.65;10.77;;;;;;;-1.75;100.00;100239.22;5008649;28;20038;-76
2023/12/03 02:32:13;;;;;;;22.88;10.05;;;;;;;-1.77;100.00;100247.28;4992594;28;20472;-75
2023/12/03 02:34:39;;;;;;;24.15;11.68;;;;;;;-1.84;100.00;100236.91;5008891;28;20125;-77
2023/12/03 02:37:07;;;;;;;19.40;10.27;;;;;;;-1.76;100.00;100248.88;4992371;28;20054;-76
2023/12/03 02:39:34;;;;;;;25.85;11.00;;;;;;;-1.93;100.00;100227.38;5008229;28;20464;-76
2023/12/03 02:41:59;;;;;;;20.63;10.23;;;;;;;-1.84;100.00;100248.09;4990022;28;20062;-76
2023/12/03 02:44:26;;;;;;;23.20;11.60;;;;;;;-1.73;100.00;100262.03;4992375;28;20104;-75
2023/12/03 02:46:51;;;;;;;23.88;11.60;;;;;;;-1.75;100.00;100261.63;4991338;28;20026;-75
2023/12/03 02:49:21;;;;;;;20.23;10.30;;;;;;;-1.68;100.00;100264.41;4992719;28;20026;-75
2023/12/03 02:51:47;;;;;;;21.05;10.13;;;;;;;-1.80;100.00;100254.47;4974902;28;20046;-76
2023/12/03 02:54:14;;;;;;;27.67;12.48;;;;;;;-1.88;100.00;100244.53;4991388;28;20110;-75
2023/12/03 02:56:42;;;;;;;22.35;11.82;;;;;;;-1.84;100.00;100255.69;4991253;28;20031;-75
2023/12/03 02:59:08;;;;;;;24.58;12.57;;;;;;;-1.76;100.00;100271.28;4994595;28;20034;-76
2023/12/03 03:01:33;;;;;;;22.27;10.60;;;;;;;-1.72;100.00;100269.25;4995011;28;20030;-76
2023/12/03 03:03:59;;;;;;;23.65;11.38;;;;;;;-1.74;100.00;100255.63;4994931;28;20034;-75
2023/12/03 03:06:25;;;;;;;20.25;11.32;;;;;;;-1.81;100.00;100254.91;4996292;28;20092;-76
2023/12/03 03:08:53;;;;;;;27.05;11.75;;;;;;;-1.68;100.00;100272.81;4994963;28;20460;-75
2023/12/03 03:11:20;;;;;;;24.15;11.10;;;;;;;-1.74;100.00;100266.03;4995235;28;20027;-76
2023/12/03 03:13:45;;;;;;;28.02;13.07;;;;;;;-1.66;100.00;100274.00;4997599;28;20026;-77
2023/12/03 03:16:14;;;;;;;25.65;11.45;;;;;;;-1.80;100.00;100268.47;4995981;28;20061;-76
2023/12/03 03:18:40;;;;;;;20.83;10.50;;;;;;;-1.70;100.00;100287.22;4996101;28;20116;-77
2023/12/03 03:21:06;;;;;;;23.77;11.23;;;;;;;-1.75;100.00;100279.25;4997336;28;20032;-77
2023/12/03 03:23:35;;;;;;;24.08;12.73;;;;;;;-1.77;100.00;100269.66;4997160;28;20030;-77
2023/12/03 03:26:00;;;;;;;24.20;11.20;;;;;;;-1.61;100.00;100295.19;4979399;28;20022;-77
2023/12/03 03:28:27;;;;;;;27.17;12.35;;;;;;;-1.75;100.00;100273.63;4997139;28;20065;-77
2023/12/03 03:30:52;;;;;;;23.17;11.60;;;;;;;-1.79;100.00;100288.88;4997060;28;20022;-76
2023/12/03 03:33:18;;;;;;;23.75;11.50;;;;;;;-1.59;100.00;100295.56;4979368;28;20099;-76
2023/12/03 03:35:43;;;;;;;26.80;12.00;;;;;;;-1.67;100.00;100288.41;4996703;28;20026;-76
2023/12/03 03:38:08;;;;;;;27.73;12.43;;;;;;;-1.63;100.00;100286.38;4996697;28;20038;-76
2023/12/03 03:40:34;;;;;;;26.42;12.48;;;;;;;-1.63;100.00;100289.19;4996789;28;20441;-77
2023/12/03 03:43:00;;;;;;;23.52;11.52;;;;;;;-1.52;100.00;100306.72;4995584;28;20022;-76
2023/12/03 03:45:26;;;;;;;25.40;11.43;;;;;;;-1.65;100.00;100300.78;4996755;28;20014;-76
2023/12/03 03:47:53;;;;;;;22.20;11.75;;;;;;;-1.56;100.00;100322.75;4996688;28;20041;-75
2023/12/03 03:50:19;;;;;;;24.73;12.95;;;;;;;-1.64;100.00;100319.19;4997185;28;20349;-76
2023/12/03 03:52:45;;;;;;;22.08;11.27;;;;;;;-1.59;100.00;100323.56;4978935;28;20057;-75
2023/12/03 03:55:12;;;;;;;27.02;13.38;;;;;;;-1.50;100.00;100335.09;4996398;28;20101;-75
2023/12/03 03:57:38;;;;;;;28.15;11.70;;;;;;;-1.60;100.00;100321.97;4996513;28;20027;-78
2023/12/03 04:00:05;;;;;;;26.15;11.00;;;;;;;-1.57;100.00;100316.34;4994942;28;20022;-76
2023/12/03 04:02:31;;;;;;;29.63;12.52;;;;;;;-1.45;100.00;100329.06;4996507;28;20046;-76
2023/12/03 04:04:59;;;;;;;25.80;12.65;;;;;;;-1.41;100.00;100338.28;4994892;28;20113;-76
2023/12/03 04:07:28;;;;;;;28.25;12.90;;;;;;;-1.53;100.00;100330.34;4996169;28;20100;-76
2023/12/03 04:09:56;;;;;;;26.45;11.25;;;;;;;-1.45;100.00;100334.69;4995646;28;20030;-77
2023/12/03 04:12:23;;;;;;;25.70;12.82;;;;;;;-1.47;100.00;100342.72;4996001;28;20511;-76
2023/12/03 04:14:51;;;;;;;23.23;11.77;;;;;;;-1.45;100.00;100353.47;4996342;28;20030;-76
2023/12/03 04:17:18;;;;;;;28.05;11.02;;;;;;;-1.63;100.00;100325.59;4994800;28;20053;-75
2023/12/03 04:19:45;;;;;;;29.20;12.70;;;;;;;-1.41;100.00;100351.47;4996190;28;20029;-77
2023/12/03 04:22:12;;;;;;;24.65;11.57;;;;;;;-1.35;100.00;100361.03;4996146;28;20038;-75
2023/12/03 04:24:38;;;;;;;24.17;11.95;;;;;;;-1.49;100.00;100359.13;4996118;28;20022;-75
2023/12/03 04:27:12;;;;;;;28.23;12.50;;;;;;;-1.45;100.00;100365.50;4996044;28;20530;-77
2023/12/03 04:29:38;;;;;;;22.50;10.77;;;;;;;-1.50;100.00;100363.13;4996227;28;20040;-75
2023/12/03 04:32:06;;;;;;;28.90;13.23;;;;;;;-1.46;100.00;100380.72;4996066;28;20034;-77
2023/12/03 04:34:32;;;;;;;27.08;11.95;;;;;;;-1.61;100.00;100374.41;4994525;28;20122;-77
2023/12/03 04:36:59;;;;;;;22.08;10.73;;;;;;;-1.56;100.00;100384.38;4996173;28;20464;-77
2023/12/03 04:39:26;;;;;;;27.85;11.93;;;;;;;-1.67;100.00;100381.63;4996384;28;20077;-79
2023/12/03 04:41:52;;;;;;;25.15;11.57;;;;;;;-1.55;100.00;100385.97;4994602;28;20109;-78
2023/12/03 04:44:19;;;;;;;27.35;13.15;;;;;;;-1.52;100.00;100392.78;4995727;28;20464;-78
2023/12/03 04:46:44;;;;;;;23.27;11.13;;;;;;;-1.48;100.00;100393.53;4995908;28;20030;-79
2023/12/03 04:49:09;;;;;;;29.05;12.02;;;;;;;-1.62;100.00;100392.41;5010395;28;20022;-78
2023/12/03 04:51:36;;;;;;;26.98;11.43;;;;;;;-1.52;100.00;100398.38;4995344;28;20077;-77
2023/12/03 04:54:02;;;;;;;26.38;11.48;;;;;;;-1.54;100.00;100409.97;4995618;28;20049;-77
2023/12/03 04:56:28;;;;;;;28.05;12.65;;;;;;;-1.50;100.00;100404.34;4995832;28;20073;-79
2023/12/03 04:58:53;;;;;;;25.95;12.95;;;;;;;-1.53;100.00;100411.56;4995309;28;20058;-78
2023/12/03 05:01:21;;;;;;;25.83;13.88;;;;;;;-1.44;100.00;100411.13;4995249;28;20030;-79
2023/12/03 05:03:49;;;;;;;22.48;11.65;;;;;;;-1.44;100.00;100417.53;4994750;28;20502;-78
2023/12/03 05:06:16;;;;;;;25.00;12.02;;;;;;;-1.40;100.00;100415.50;4993913;28;20026;-77
2023/12/03 05:08:43;;;;;;;26.80;12.20;;;;;;;-1.42;100.00;100420.72;4993994;28;20112;-79
2023/12/03 05:11:09;;;;;;;28.50;12.93;;;;;;;-1.38;100.00;100424.31;4995329;28;20050;-77
2023/12/03 05:13:37;;;;;;;26.92;12.48;;;;;;;-1.42;100.00;100425.53;4993653;28;20038;-78
2023/12/03 05:16:18;;;;;;;23.17;11.43;;;;;;;-1.44;100.00;100430.75;5010251;28;20041;-77
2023/12/03 05:18:44;;;;;;;28.73;12.27;;;;;;;-1.46;100.00;100438.78;4995278;28;20030;-78
2023/12/03 05:21:10;;;;;;;28.88;12.82;;;;;;;-1.56;100.00;100444.00;4994098;28;20030;-77
2023/12/03 05:23:36;;;;;;;27.88;13.05;;;;;;;-1.49;100.00;100445.19;4995170;28;20448;-77
2023/12/03 05:26:02;;;;;;;24.83;12.50;;;;;;;-1.50;100.00;100449.19;4994824;28;20060;-77
2023/12/03 05:28:29;;;;;;;26.42;12.98;;;;;;;-1.53;100.00;100445.19;4994861;28;20081;-78
2023/12/03 05:30:57;;;;;;;27.13;11.82;;;;;;;-1.49;100.00;100447.97;4994620;28;20444;-77
2023/12/03 05:33:22;;;;;;;26.25;13.30;;;;;;;-1.50;100.00;100449.97;4994922;28;20045;-78
2023/12/03 05:35:48;;;;;;;23.42;12.77;;;;;;;-1.49;100.00;100457.19;4993404;28;20026;-78
2023/12/03 05:38:15;;;;;;;24.27;12.35;;;;;;;-1.46;100.00;100462.00;4993388;28;20378;-78
2023/12/03 05:40:42;;;;;;;24.92;11.52;;;;;;;-1.43;100.00;100465.97;4993053;28;20050;-78
2023/12/03 05:43:08;;;;;;;30.30;12.77;;;;;;;-1.40;100.00;100462.34;4994694;28;20043;-79
2023/12/03 05:45:35;;;;;;;24.83;11.95;;;;;;;-1.45;100.00;100482.38;4994267;28;20030;-78
2023/12/03 05:48:02;;;;;;;24.30;12.88;;;;;;;-1.43;100.00;100482.78;4994648;28;20030;-78
2023/12/03 05:50:28;;;;;;;29.55;13.60;;;;;;;-1.40;100.00;100493.97;4994755;28;20022;-79
2023/12/03 05:52:53;;;;;;;27.67;12.65;;;;;;;-1.42;100.00;100487.97;4992850;28;20048;-79
2023/12/03 05:55:19;;;;;;;26.48;12.70;;;;;;;-1.42;100.00;100485.19;4992626;28;20045;-78
2023/12/03 05:57:45;;;;;;;28.95;14.05;;;;;;;-1.42;100.00;100490.78;4993022;28;20061;-80
2023/12/03 06:00:11;;;;;;;29.58;12.82;;;;;;;-1.38;100.00;100485.16;4992906;28;20419;-78
2023/12/03 06:02:37;;;;;;;25.83;12.45;;;;;;;-1.29;100.00;100489.13;4994209;28;20436;-79
2023/12/03 06:05:05;;;;;;;31.50;13.52;;;;;;;-1.30;100.00;100497.91;4994643;28;20053;-78
2023/12/03 06:07:31;;;;;;;23.17;12.07;;;;;;;-1.31;100.00;100488.72;4994471;28;20385;-78
2023/12/03 06:09:57;;;;;;;26.30;13.32;;;;;;;-1.39;100.00;100495.56;4994048;28;20069;-79
2023/12/03 06:12:23;;;;;;;29.17;13.20;;;;;;;-1.37;100.00;100495.16;4992540;28;20072;-78
2023/12/03 06:14:50;;;;;;;29.13;13.63;;;;;;;-1.33;100.00;100505.16;4976481;28;20054;-77
2023/12/03 06:17:16;;;;;;;22.88;12.48;;;;;;;-1.37;100.00;100509.19;4977031;28;20131;-79
2023/12/03 06:19:41;;;;;;;27.70;13.23;;;;;;;-1.36;100.00;100513.59;4992614;28;20472;-78
2023/12/03 06:22:07;;;;;;;23.70;11.43;;;;;;;-1.31;100.00;100513.16;4995125;28;20030;-77
2023/12/03 06:24:33;;;;;;;22.67;12.60;;;;;;;-1.32;100.00;100517.16;4994040;28;20084;-79
2023/12/03 06:26:59;;;;;;;23.27;13.05;;;;;;;-1.25;100.00;100526.34;4992828;28;20038;-78
2023/12/03 06:29:26;;;;;;;25.60;13.88;;;;;;;-1.26;100.00;100532.38;4993782;28;20097;-79
2023/12/03 06:31:51;;;;;;;29.98;14.30;;;;;;;-1.27;100.00;100525.97;4994138;28;20034;-79
2023/12/03 06:34:18;;;;;;;28.10;13.88;;;;;;;-1.19;100.00;100533.13;4993840;28;20039;-79
2023/12/03 06:36:46;;;;;;;26.25;13.00;;;;;;;-1.13;100.00;100536.31;4995064;28;20037;-81
2023/12/03 06:39:13;;;;;;;25.25;12.48;;;;;;;-1.14;100.00;100531.91;4995885;28;20133;-83
2023/12/03 06:41:39;;;;;;;31.58;15.25;;;;;;;-1.16;100.00;100542.72;4993983;28;20487;-81
2023/12/03 06:44:04;;;;;;;28.20;13.45;;;;;;;-1.10;100.00;100545.88;4994592;28;20081;-81
2023/12/03 06:46:39;;;;;;;28.73;14.07;;;;;;;-1.07;100.00;100545.09;4994470;28;20050;-83
2023/12/03 06:49:06;;;;;;;33.22;13.93;;;;;;;-0.98;100.00;100548.25;4994307;28;20034;-84
2023/12/03 06:51:33;;;;;;;27.17;14.55;;;;;;;-1.02;100.00;100553.09;4992531;28;20116;-82
2023/12/03 06:54:02;;;;;;;29.08;14.57;;;;;;;-0.99;100.00;100558.66;4994078;28;20050;-80
2023/12/03 06:56:28;;;;;;;35.40;14.48;;;;;;;-1.02;100.00;100556.69;4992208;28;20502;-78
2023/12/03 06:58:56;;;;;;;31.67;14.50;;;;;;;-0.98;100.00;100557.47;4993952;28;20525;-80
2023/12/03 07:01:23;;;;;;;29.45;13.50;;;;;;;-0.93;100.00;100568.25;4992866;28;20034;-81
2023/12/03 07:03:49;;;;;;;31.35;13.23;;;;;;;-0.93;100.00;100568.25;4994310;28;20065;-81
2023/12/03 07:06:14;;;;;;;32.95;14.35;;;;;;;-1.03;100.00;100569.09;4976296;28;20380;-80
2023/12/03 07:08:40;;;;;;;30.10;15.27;;;;;;;-0.99;100.00;100571.88;4993795;28;20063;-82
2023/12/03 07:11:07;;;;;;;28.10;13.23;;;;;;;-0.97;100.00;100572.28;4997703;28;20031;-88
2023/12/03 07:13:34;;;;;;;26.67;12.95;;;;;;;-0.90;100.00;100591.88;4994547;28;20034;-82
2023/12/03 07:15:59;;;;;;;30.63;16.00;;;;;;;-0.85;100.00;100592.25;4994266;28;20055;-84
2023/12/03 07:18:26;;;;;;;26.17;14.13;;;;;;;-0.75;100.00;100593.41;4997007;28;20126;-87
2023/12/03 07:20:53;;;;;;;28.05;13.88;;;;;;;-0.77;100.00;100593.78;4996779;28;20081;-80
2023/12/03 07:23:19;;;;;;;23.35;12.63;;;;;;;-0.71;100.00;100580.16;4992614;28;20053;-82
2023/12/03 07:25:44;;;;;;;24.55;11.40;;;;;;;-0.53;100.00;100603.31;4992898;28;20027;-82
2023/12/03 07:28:11;;;;;;;26.73;12.70;;;;;;;-0.63;100.00;100606.97;4992126;28;20115;-81
2023/12/03 07:30:44;;;;;;;27.35;13.20;;;;;;;-0.64;100.00;100621.41;4993384;28;20026;-80
2023/12/03 07:33:10;;;;;;;24.33;12.18;;;;;;;-0.73;100.00;100607.81;4993797;28;20025;-82
2023/12/03 07:35:36;;;;;;;28.17;13.68;;;;;;;-0.70;100.00;100623.84;4996689;28;20030;-80
2023/12/03 07:38:02;;;;;;;29.50;15.23;;;;;;;-0.74;100.00;100620.25;4992302;28;20048;-81
2023/12/03 07:40:28;;;;;;;29.05;13.70;;;;;;;-0.61;100.00;100638.22;4995635;28;20110;-81
2023/12/03 07:42:53;;;;;;;29.80;13.35;;;;;;;-0.67;100.00;100631.44;4994291;28;20038;-82
2023/12/03 07:45:19;;;;;;;25.73;12.75;;;;;;;-0.53;100.00;100639.78;4996843;28;20049;-86
2023/12/03 07:47:45;;;;;;;26.20;13.35;;;;;;;-0.47;100.00;100640.94;4997758;28;20437;-81
2023/12/03 07:50:12;;;;;;;25.83;12.90;;;;;;;-0.43;100.00;100641.75;4997109;28;20488;-82
2023/12/03 07:52:38;;;;;;;26.48;13.52;;;;;;;-0.36;100.00;100647.31;4996601;28;20054;-80
2023/12/03 07:55:05;;;;;;;24.95;12.05;;;;;;;-0.28;100.00;100653.69;4995240;28;20395;-82
2023/12/03 07:57:31;;;;;;;25.05;12.80;;;;;;;-0.25;100.00;100650.06;4996830;28;20034;-82
2023/12/03 07:59:58;;;;;;;27.10;12.80;;;;;;;-0.15;100.00;100656.81;4995180;28;20125;-83
2023/12/03 08:02:24;;;;;;;25.58;13.13;;;;;;;-0.10;100.00;100665.59;4996423;28;20057;-84
2023/12/03 08:04:49;;;;;;;22.23;12.30;;;;;;;-0.09;100.00;100675.63;4996203;28;20038;-80
2023/12/03 08:07:23;;;;;;;24.33;11.90;;;;;;;-0.05;100.00;100675.59;4995991;28;20061;-82
2023/12/03 08:09:51;;;;;;;25.92;12.23;;;;;;;-0.09;100.00;100678.44;4996602;28;20057;-81
2023/12/03 08:12:19;;;;;;;23.80;11.82;;;;;;;-0.04;100.00;100680.00;4997262;28;20129;-82
2023/12/03 08:14:48;;;;;;;25.65;12.23;;;;;;;-0.09;100.00;100678.44;4996852;28;20364;-83
2023/12/03 08:17:15;;;;;;;24.90;11.68;;;;;;;-0.14;100.00;100680.88;4996542;28;20029;-82
2023/12/03 08:19:41;;;;;;;23.75;12.15;;;;;;;-0.01;100.00;100688.41;4996055;28;20482;-82
2023/12/03 08:22:07;;;;;;;29.73;13.57;;;;;;;0.10;100.00;100694.75;4994804;28;20073;-83
2023/12/03 08:24:34;;;;;;;27.95;12.80;;;;;;;0.11;100.00;100698.38;4996264;28;20113;-85
2023/12/03 08:27:01;;;;;;;32.60;15.07;;;;;;;0.10;100.00;100699.56;4962624;28;20022;-85
2023/12/03 08:29:28;;;;;;;28.58;13.07;;;;;;;0.08;100.00;100701.97;4994829;28;20145;-82
2023/12/03 08:31:54;;;;;;;23.55;12.10;;;;;;;0.12;100.00;100697.94;4995999;28;20468;-83
2023/12/03 08:34:23;;;;;;;25.17;12.25;;;;;;;0.24;100.00;100710.72;4978273;28;20033;-82
2023/12/03 08:36:50;;;;;;;28.08;13.63;;;;;;;0.27;100.00;100709.88;4994730;28;20022;-82
2023/12/03 08:39:17;;;;;;;26.70;14.32;;;;;;;0.31;100.00;100712.69;4978538;28;20085;-82
2023/12/03 08:41:45;;;;;;;29.65;13.32;;;;;;;0.29;100.00;100715.09;4997020;28;20442;-83
2023/12/03 08:44:11;;;;;;;25.40;12.82;;;;;;;0.23;100.00;100723.16;4995286;28;20156;-80
2023/12/03 08:46:38;;;;;;;25.92;13.18;;;;;;;0.24;100.00;100718.34;4995840;28;20069;-81
2023/12/03 08:49:05;;;;;;;25.60;11.88;;;;;;;0.27;100.00;100729.53;4978725;28;20435;-84
2023/12/03 08:51:30;;;;;;;29.20;14.15;;;;;;;0.28;100.00;100735.97;5011598;28;20062;-84
2023/12/03 08:53:56;;;;;;;26.15;12.73;;;;;;;0.28;100.00;100731.16;4995115;28;20450;-80
2023/12/03 08:56:23;;;;;;;28.58;12.80;;;;;;;0.28;100.00;100730.34;4994891;28;20531;-83
2023/12/03 08:58:48;;;;;;;27.77;14.20;;;;;;;0.27;100.00;100745.63;4994635;28;20073;-88
2023/12/03 09:01:14;;;;;;;27.10;12.65;;;;;;;0.29;100.00;100740.38;4994581;28;20030;-85
2023/12/03 09:03:40;;;;;;;22.63;12.10;;;;;;;0.25;100.00;100742.41;4994373;28;20093;-84
2023/12/03 09:06:07;;;;;;;22.27;12.70;;;;;;;0.16;100.00;100748.50;4994825;28;20022;-85
2023/12/03 09:08:33;;;;;;;26.05;12.07;;;;;;;0.09;100.00;100756.97;4993995;28;20036;-80
2023/12/03 09:11:07;;;;;;;25.40;13.63;;;;;;;0.12;100.00;100759.75;4994390;28;20470;-82
2023/12/03 09:13:34;;;;;;;26.38;12.90;;;;;;;0.14;100.00;100753.72;4995326;28;20105;-79
2023/12/03 09:15:59;;;;;;;28.02;14.30;;;;;;;0.12;100.00;100761.78;4993682;28;20105;-84
2023/12/03 09:18:25;;;;;;;26.48;12.95;;;;;;;0.06;100.00;100758.59;4994085;28;20030;-83
2023/12/03 09:20:50;;;;;;;21.95;12.38;;;;;;;0.05;100.00;100764.63;4977463;28;20027;-83
2023/12/03 09:23:31;;;;;;;24.60;13.50;;;;;;;0.06;100.00;100763.41;4994249;28;20045;-82
2023/12/03 09:25:58;;;;;;;25.33;11.60;;;;;;;0.18;100.00;100769.34;4993711;28;20019;-82
2023/12/03 09:28:25;;;;;;;26.77;12.63;;;;;;;0.33;100.00;100766.44;4993773;28;20022;-82
2023/12/03 09:30:51;;;;;;;24.70;11.80;;;;;;;0.38;100.00;100778.06;4993714;28;20103;-83
2023/12/03 09:33:17;;;;;;;26.63;11.02;;;;;;;0.31;100.00;100775.31;4993267;28;20026;-83
2023/12/03 09:35:42;;;;;;;21.65;12.15;;;;;;;0.39;100.00;100773.22;4992593;28;20489;-83
2023/12/03 09:38:08;;;;;;;24.85;11.85;;;;;;;0.43;100.00;100776.81;4993066;28;20218;-83
2023/12/03 09:40:33;;;;;;;24.85;11.50;;;;;;;0.55;100.00;100790.41;4991880;28;20025;-84
2023/12/03 09:43:04;;;;;;;19.10;9.75;;;;;;;0.59;100.00;100783.53;4991668;28;20031;-83
2023/12/03 09:45:31;;;;;;;18.55;10.20;;;;;;;0.49;100.00;100790.03;5007849;28;20015;-83
2023/12/03 09:48:00;;;;;;;21.25;10.77;;;;;;;0.48;100.00;100799.66;4991184;28;20094;-82
2023/12/03 09:50:26;;;;;;;21.88;10.25;;;;;;;0.37;100.00;100792.53;4991157;28;20391;-82
2023/12/03 09:52:55;;;;;;;21.45;10.55;;;;;;;0.24;100.00;100774.53;4993341;28;20054;-82
2023/12/03 09:55:25;;;;;;;20.83;9.95;;;;;;;0.18;100.00;100783.41;4997167;28;20109;-82
2023/12/03 09:57:54;;;;;;;18.63;9.38;;;;;;;0.04;100.00;100769.44;4995622;28;20093;-82
2023/12/03 10:00:21;;;;;;;21.17;9.73;;;;;;;0.03;100.00;100786.69;5004547;28;20022;-82
2023/12/03 10:02:46;;;;;;;18.75;9.23;;;;;;;-0.19;100.00;100771.97;5006754;28;20026;-81
2023/12/03 10:05:12;;;;;;;16.45;9.07;;;;;;;-0.18;100.00;100781.19;4990941;28;20033;-82
2023/12/03 10:07:38;;;;;;;20.77;9.60;;;;;;;-0.20;100.00;100780.78;5010783;28;20026;-83
2023/12/03 10:10:05;;;;;;;18.70;8.98;;;;;;;-0.19;100.00;100777.56;5006265;28;20026;-84
2023/12/03 10:12:43;;;;;;;17.63;9.48;;;;;;;-0.17;100.00;100794.81;5006424;28;20030;-82
2023/12/03 10:15:12;;;;;;;17.85;8.88;;;;;;;-0.29;100.00;100765.19;5009885;28;20053;-82
2023/12/03 10:17:38;;;;;;;18.92;9.13;;;;;;;-0.33;100.00;100772.03;5008938;28;20415;-82
2023/12/03 10:20:21;;;;;;;17.38;8.75;;;;;;;-0.26;100.00;100786.81;5000675;28;20030;-81
2023/12/03 10:22:50;;;;;;;17.77;9.57;;;;;;;-0.23;100.00;100796.44;4994247;28;20022;-83
2023/12/03 10:25:42;;;;;;;17.98;10.13;;;;;;;-0.19;100.00;100794.44;4994942;28;20420;-82
2023/12/03 10:28:08;;;;;;;15.50;8.55;;;;;;;-0.16;100.00;100793.59;4992051;28;20132;-82
2023/12/03 10:30:35;;;;;;;13.35;7.78;;;;;;;-0.09;100.00;100799.19;4994456;28;20383;-82
2023/12/03 10:33:00;;;;;;;15.63;8.13;;;;;;;-0.04;100.00;100803.59;4994135;28;20026;-84
2023/12/03 10:35:33;;;;;;;18.42;9.90;;;;;;;0.16;100.00;100801.88;4994054;28;20037;-84
2023/12/03 10:37:58;;;;;;;18.27;8.82;;;;;;;0.29;100.00;100805.81;4994188;28;20030;-81
2023/12/03 10:40:25;;;;;;;19.23;9.65;;;;;;;0.37;100.00;100801.75;4994349;28;20025;-82
2023/12/03 10:42:50;;;;;;;17.60;9.45;;;;;;;0.25;100.00;100795.81;4994387;28;20029;-82
2023/12/03 10:45:16;;;;;;;22.90;10.82;;;;;;;0.17;100.00;100823.16;4993839;28;20022;-82
2023/12/03 10:47:42;;;;;;;18.05;10.85;;;;;;;0.09;100.00;100815.97;4994017;28;20030;-83
2023/12/03 10:50:12;;;;;;;19.30;9.30;;;;;;;0.02;100.00;100818.81;4993832;28;20045;-84
2023/12/03 10:52:39;;;;;;;18.88;10.30;;;;;;;-0.05;100.00;100801.97;4994176;28;20404;-80
2023/12/03 10:55:07;;;;;;;23.52;11.30;;;;;;;-0.05;100.00;100804.78;4993749;28;20114;-79
2023/12/03 10:57:39;;;;;;;20.52;11.15;;;;;;;-0.09;100.00;100802.00;4992449;28;20050;-76
2023/12/03 11:00:11;;;;;;;21.65;11.95;;;;;;;-0.14;100.00;100808.03;4993434;28;20471;-79
2023/12/03 11:02:49;;;;;;;;;;;;;;;-0.23;100.00;100813.31;4977410;28;20065;-78